Time;durP1;ratioP1;P1;durP2;ratioP2;P2;SDS_P1;SDS_P2;PMS_P1;PMS_P2;Temp;Humidity;BMP_temperature;BMP_pressure;BME280_temperature;BME280_humidity;BME280_pressure;Samples;Min_cycle;Max_cycle;Signal;HPM_P1;HPM_P2
2022/10/03 00:00:00;;;;;;;0.8;0.8;;;;;;;10.9;100.0;102320;;;;
2022/10/03 00:01:10;;;;;;;0.8;0.8;;;;;;;10.8;100.0;102320;;;;
2022/10/03 00:02:06;;;;;;;0.8;0.8;;;;;;;10.8;100.0;102320;;;;
2022/10/03 00:03:10;;;;;;;0.8;0.8;;;;;;;10.9;100.0;102310;;;;
2022/10/03 00:04:10;;;;;;;0.8;0.8;;;;;;;10.9;100.0;102310;;;;
2022/10/03 00:05:10;;;;;;;0.8;0.8;;;;;;;10.8;100.0;102310;;;;
2022/10/03 00:06:03;;;;;;;0.8;0.8;;;;;;;10.8;100.0;102310;;;;
2022/10/03 00:07:10;;;;;;;0.8;0.8;;;;;;;10.7;100.0;102310;;;;
2022/10/03 00:08:00;;;;;;;0.8;0.8;;;;;;;10.7;100.0;102310;;;;
2022/10/03 00:09:10;;;;;;;0.8;0.8;;;;;;;10.6;100.0;102310;;;;
2022/10/03 00:10:10;;;;;;;0.8;0.8;;;;;;;10.6;100.0;102310;;;;
2022/10/03 00:11:10;;;;;;;0.8;0.8;;;;;;;10.7;100.0;102310;;;;
2022/10/03 00:12:08;;;;;;;0.8;0.8;;;;;;;10.7;100.0;102310;;;;
2022/10/03 00:13:06;;;;;;;0.8;0.8;;;;;;;10.7;100.0;102320;;;;
2022/10/03 00:14:00;;;;;;;0.8;0.8;;;;;;;10.7;100.0;102320;;;;
2022/10/03 00:15:03;;;;;;;0.8;0.8;;;;;;;10.8;100.0;102320;;;;
2022/10/03 00:16:00;;;;;;;0.8;0.8;;;;;;;10.8;100.0;102320;;;;
2022/10/03 00:17:01;;;;;;;0.8;0.8;;;;;;;10.8;100.0;102320;;;;
2022/10/03 00:18:07;;;;;;;0.8;0.8;;;;;;;10.7;100.0;102320;;;;
2022/10/03 00:19:03;;;;;;;0.8;0.8;;;;;;;10.7;100.0;102310;;;;
2022/10/03 00:20:06;;;;;;;0.8;0.8;;;;;;;10.7;100.0;102310;;;;
2022/10/03 00:21:03;;;;;;;0.8;0.8;;;;;;;10.7;100.0;102310;;;;
2022/10/03 00:22:10;;;;;;;0.8;0.8;;;;;;;10.7;100.0;102310;;;;
2022/10/03 00:23:00;;;;;;;1.1;1.1;;;;;;;10.7;100.0;102310;;;;
2022/10/03 00:24:00;;;;;;;1.1;1.1;;;;;;;10.7;100.0;102320;;;;
2022/10/03 00:25:10;;;;;;;1.1;1.1;;;;;;;10.6;100.0;102320;;;;
2022/10/03 00:26:25;;;;;;;1.1;1.1;;;;;;;10.6;100.0;102320;;;;
2022/10/03 00:27:00;;;;;;;1.1;1.1;;;;;;;10.6;100.0;102320;;;;
2022/10/03 00:28:01;;;;;;;1.1;1.1;;;;;;;10.6;100.0;102320;;;;
2022/10/03 00:29:00;;;;;;;1.1;1.1;;;;;;;10.6;100.0;102320;;;;
2022/10/03 00:30:10;;;;;;;1.1;1.1;;;;;;;10.6;100.0;102330;;;;
2022/10/03 00:31:00;;;;;;;1.1;1.1;;;;;;;10.6;100.0;102330;;;;
2022/10/03 00:32:00;;;;;;;1.1;1.1;;;;;;;10.6;100.0;102330;;;;
2022/10/03 00:33:06;;;;;;;1.1;1.1;;;;;;;10.6;100.0;102330;;;;
2022/10/03 00:34:10;;;;;;;1.1;1.1;;;;;;;10.6;100.0;102330;;;;
2022/10/03 00:35:03;;;;;;;1.1;1.1;;;;;;;10.5;100.0;102330;;;;
2022/10/03 00:36:03;;;;;;;1.1;1.1;;;;;;;10.5;100.0;102330;;;;
2022/10/03 00:37:10;;;;;;;1.1;1.1;;;;;;;10.5;100.0;102330;;;;
2022/10/03 00:38:01;;;;;;;1.1;1.1;;;;;;;10.5;100.0;102330;;;;
2022/10/03 00:39:01;;;;;;;1.1;1.1;;;;;;;10.5;100.0;102330;;;;
2022/10/03 00:40:10;;;;;;;1.1;1.1;;;;;;;10.4;100.0;102330;;;;
2022/10/03 00:41:10;;;;;;;1.1;1.1;;;;;;;10.5;100.0;102330;;;;
2022/10/03 00:42:00;;;;;;;1.1;1.1;;;;;;;10.5;100.0;102330;;;;
2022/10/03 00:43:03;;;;;;;0.9;0.9;;;;;;;10.5;100.0;102340;;;;
2022/10/03 00:44:03;;;;;;;0.9;0.9;;;;;;;10.5;100.0;102340;;;;
2022/10/03 00:45:10;;;;;;;0.9;0.9;;;;;;;10.5;100.0;102340;;;;
2022/10/03 00:46:01;;;;;;;0.9;0.9;;;;;;;10.5;100.0;102340;;;;
2022/10/03 00:47:00;;;;;;;0.9;0.9;;;;;;;10.5;100.0;102340;;;;
2022/10/03 00:48:00;;;;;;;0.9;0.9;;;;;;;10.4;100.0;102340;;;;
2022/10/03 00:49:10;;;;;;;0.9;0.9;;;;;;;10.4;100.0;102340;;;;
2022/10/03 00:50:10;;;;;;;0.9;0.9;;;;;;;10.4;100.0;102340;;;;
2022/10/03 00:51:01;;;;;;;0.9;0.9;;;;;;;10.4;100.0;102340;;;;
2022/10/03 00:52:01;;;;;;;0.9;0.9;;;;;;;10.4;100.0;102340;;;;
2022/10/03 00:53:09;;;;;;;0.9;0.9;;;;;;;10.2;100.0;102350;;;;
2022/10/03 00:54:01;;;;;;;0.9;0.9;;;;;;;10.2;100.0;102350;;;;
2022/10/03 00:55:10;;;;;;;0.9;0.9;;;;;;;10.1;100.0;102350;;;;
2022/10/03 00:56:10;;;;;;;0.9;0.9;;;;;;;10.1;100.0;102350;;;;
2022/10/03 00:57:10;;;;;;;0.9;0.9;;;;;;;10.2;100.0;102350;;;;
2022/10/03 00:58:00;;;;;;;0.9;0.9;;;;;;;10.2;100.0;102350;;;;
2022/10/03 00:59:07;;;;;;;0.9;0.9;;;;;;;10.1;100.0;102350;;;;
2022/10/03 01:00:10;;;;;;;0.9;0.9;;;;;;;10.1;100.0;102350;;;;
2022/10/03 01:01:10;;;;;;;0.9;0.9;;;;;;;10.3;100.0;102350;;;;
2022/10/03 01:02:13;;;;;;;0.9;0.9;;;;;;;10.3;100.0;102350;;;;
2022/10/03 01:03:08;;;;;;;0.8;0.8;;;;;;;10.4;100.0;102350;;;;
2022/10/03 01:04:09;;;;;;;0.8;0.8;;;;;;;10.4;100.0;102350;;;;
2022/10/03 01:05:11;;;;;;;0.8;0.8;;;;;;;10.3;100.0;102350;;;;
2022/10/03 01:06:13;;;;;;;0.8;0.8;;;;;;;10.3;100.0;102350;;;;
2022/10/03 01:07:10;;;;;;;0.8;0.8;;;;;;;10.2;100.0;102350;;;;
2022/10/03 01:08:10;;;;;;;0.8;0.8;;;;;;;10.2;100.0;102350;;;;
2022/10/03 01:09:10;;;;;;;0.8;0.8;;;;;;;10.1;100.0;102350;;;;
2022/10/03 01:10:10;;;;;;;0.8;0.8;;;;;;;10.1;100.0;102350;;;;
2022/10/03 01:11:10;;;;;;;0.8;0.8;;;;;;;10.1;100.0;102350;;;;
2022/10/03 01:12:00;;;;;;;0.8;0.8;;;;;;;10.1;100.0;102350;;;;
2022/10/03 01:13:10;;;;;;;0.8;0.8;;;;;;;10.2;100.0;102350;;;;
2022/10/03 01:14:00;;;;;;;0.8;0.8;;;;;;;10.2;100.0;102350;;;;
2022/10/03 01:15:00;;;;;;;0.8;0.8;;;;;;;10.2;100.0;102350;;;;
2022/10/03 01:16:09;;;;;;;0.8;0.8;;;;;;;10.1;100.0;102360;;;;
2022/10/03 01:17:10;;;;;;;0.8;0.8;;;;;;;10.1;100.0;102350;;;;
2022/10/03 01:18:09;;;;;;;0.8;0.8;;;;;;;10.1;100.0;102350;;;;
2022/10/03 01:19:01;;;;;;;0.8;0.8;;;;;;;10.1;100.0;102350;;;;
2022/10/03 01:20:01;;;;;;;0.8;0.8;;;;;;;10.1;100.0;102360;;;;
2022/10/03 01:21:05;;;;;;;0.8;0.8;;;;;;;10.1;100.0;102370;;;;
2022/10/03 01:22:03;;;;;;;0.8;0.8;;;;;;;10.1;100.0;102370;;;;
2022/10/03 01:23:10;;;;;;;0.9;0.9;;;;;;;10.2;100.0;102370;;;;
2022/10/03 01:24:03;;;;;;;0.9;0.9;;;;;;;10.2;100.0;102370;;;;
2022/10/03 01:25:10;;;;;;;0.9;0.9;;;;;;;10.1;100.0;102370;;;;
2022/10/03 01:26:10;;;;;;;0.9;0.9;;;;;;;10.1;100.0;102370;;;;
2022/10/03 01:27:00;;;;;;;0.9;0.9;;;;;;;10.1;100.0;102370;;;;
2022/10/03 01:31:04;;;;;;;0.9;0.9;;;;;;;9.8;100.0;102380;;;;
2022/10/03 01:32:03;;;;;;;0.9;0.9;;;;;;;9.8;100.0;102380;;;;
2022/10/03 01:33:10;;;;;;;0.9;0.9;;;;;;;9.8;100.0;102370;;;;
2022/10/03 01:34:04;;;;;;;0.9;0.9;;;;;;;9.8;100.0;102370;;;;
2022/10/03 01:35:09;;;;;;;0.9;0.9;;;;;;;9.9;100.0;102370;;;;
2022/10/03 01:36:01;;;;;;;0.9;0.9;;;;;;;9.9;100.0;102370;;;;
2022/10/03 01:37:04;;;;;;;0.9;0.9;;;;;;;10.0;100.0;102380;;;;
2022/10/03 01:38:10;;;;;;;0.9;0.9;;;;;;;10.0;100.0;102380;;;;
2022/10/03 01:39:05;;;;;;;0.9;0.9;;;;;;;10.0;100.0;102380;;;;
2022/10/03 01:40:03;;;;;;;0.9;0.9;;;;;;;10.0;100.0;102380;;;;
2022/10/03 01:41:05;;;;;;;0.9;0.9;;;;;;;10.0;100.0;102380;;;;
2022/10/03 01:42:06;;;;;;;0.9;0.9;;;;;;;10.0;100.0;102380;;;;
2022/10/03 01:43:10;;;;;;;0.9;0.9;;;;;;;10.0;100.0;102390;;;;
2022/10/03 01:44:03;;;;;;;0.9;0.9;;;;;;;10.0;100.0;102390;;;;
2022/10/03 01:45:11;;;;;;;0.9;0.9;;;;;;;10.0;100.0;102380;;;;
2022/10/03 01:46:01;;;;;;;0.9;0.9;;;;;;;10.0;100.0;102380;;;;
2022/10/03 01:47:10;;;;;;;0.9;0.9;;;;;;;9.9;100.0;102380;;;;
2022/10/03 01:48:04;;;;;;;0.9;0.9;;;;;;;9.9;100.0;102380;;;;
2022/10/03 01:49:07;;;;;;;0.9;0.9;;;;;;;10.0;100.0;102380;;;;
2022/10/03 01:50:10;;;;;;;0.9;0.9;;;;;;;10.0;100.0;102380;;;;
2022/10/03 01:51:06;;;;;;;0.9;0.9;;;;;;;9.9;100.0;102370;;;;
2022/10/03 01:52:09;;;;;;;0.9;0.9;;;;;;;9.9;100.0;102370;;;;
2022/10/03 01:53:10;;;;;;;0.9;0.9;;;;;;;9.9;100.0;102370;;;;
2022/10/03 01:54:06;;;;;;;0.9;0.9;;;;;;;9.9;100.0;102370;;;;
2022/10/03 01:55:10;;;;;;;0.9;0.9;;;;;;;9.9;100.0;102370;;;;
2022/10/03 01:56:02;;;;;;;0.9;0.9;;;;;;;9.9;100.0;102370;;;;
2022/10/03 01:57:10;;;;;;;0.9;0.9;;;;;;;9.9;100.0;102370;;;;
2022/10/03 01:58:08;;;;;;;0.9;0.9;;;;;;;9.9;100.0;102370;;;;
2022/10/03 01:59:10;;;;;;;0.9;0.9;;;;;;;9.9;100.0;102370;;;;
2022/10/03 02:00:07;;;;;;;0.9;0.9;;;;;;;9.9;100.0;102370;;;;
2022/10/03 02:01:10;;;;;;;0.9;0.9;;;;;;;9.8;100.0;102380;;;;
2022/10/03 02:02:07;;;;;;;0.9;0.9;;;;;;;9.8;100.0;102380;;;;
2022/10/03 02:03:00;;;;;;;1.1;1.1;;;;;;;9.8;100.0;102380;;;;
2022/10/03 02:04:03;;;;;;;1.1;1.1;;;;;;;9.9;100.0;102380;;;;
2022/10/03 02:05:06;;;;;;;1.1;1.1;;;;;;;9.8;100.0;102380;;;;
2022/10/03 02:06:10;;;;;;;1.1;1.1;;;;;;;9.8;100.0;102380;;;;
2022/10/03 02:07:10;;;;;;;1.1;1.1;;;;;;;9.8;100.0;102380;;;;
2022/10/03 02:08:04;;;;;;;1.1;1.1;;;;;;;9.8;100.0;102380;;;;
2022/10/03 02:09:07;;;;;;;1.1;1.1;;;;;;;9.8;100.0;102380;;;;
2022/10/03 02:10:07;;;;;;;1.1;1.1;;;;;;;9.8;100.0;102380;;;;
2022/10/03 02:11:02;;;;;;;1.1;1.1;;;;;;;9.8;100.0;102380;;;;
2022/10/03 02:12:05;;;;;;;1.1;1.1;;;;;;;9.8;100.0;102380;;;;
2022/10/03 02:13:07;;;;;;;1.1;1.1;;;;;;;9.7;100.0;102380;;;;
2022/10/03 02:14:10;;;;;;;1.1;1.1;;;;;;;9.7;100.0;102380;;;;
2022/10/03 02:15:07;;;;;;;1.1;1.1;;;;;;;9.8;100.0;102380;;;;
2022/10/03 02:16:01;;;;;;;1.1;1.1;;;;;;;9.8;100.0;102380;;;;
2022/10/03 02:17:06;;;;;;;1.1;1.1;;;;;;;9.8;100.0;102390;;;;
2022/10/03 02:18:11;;;;;;;1.1;1.1;;;;;;;9.8;100.0;102390;;;;
2022/10/03 02:19:10;;;;;;;1.1;1.1;;;;;;;9.8;100.0;102380;;;;
2022/10/03 02:20:01;;;;;;;1.1;1.1;;;;;;;9.8;100.0;102380;;;;
2022/10/03 02:21:10;;;;;;;1.1;1.1;;;;;;;9.8;100.0;102390;;;;
2022/10/03 02:22:01;;;;;;;1.1;1.1;;;;;;;9.8;100.0;102390;;;;
2022/10/03 02:23:00;;;;;;;1.0;1.0;;;;;;;9.8;100.0;102390;;;;
2022/10/03 02:24:07;;;;;;;1.0;1.0;;;;;;;9.8;100.0;102380;;;;
2022/10/03 02:25:07;;;;;;;1.0;1.0;;;;;;;9.7;100.0;102380;;;;
2022/10/03 02:26:10;;;;;;;1.0;1.0;;;;;;;9.7;100.0;102380;;;;
2022/10/03 02:27:10;;;;;;;1.0;1.0;;;;;;;9.7;100.0;102390;;;;
2022/10/03 02:28:10;;;;;;;1.0;1.0;;;;;;;9.7;100.0;102390;;;;
2022/10/03 02:29:10;;;;;;;1.0;1.0;;;;;;;9.7;100.0;102390;;;;
2022/10/03 02:30:08;;;;;;;1.0;1.0;;;;;;;9.7;100.0;102390;;;;
2022/10/03 02:31:03;;;;;;;1.0;1.0;;;;;;;9.7;100.0;102400;;;;
2022/10/03 02:32:02;;;;;;;1.0;1.0;;;;;;;9.7;100.0;102400;;;;
2022/10/03 02:33:10;;;;;;;1.0;1.0;;;;;;;9.7;100.0;102400;;;;
2022/10/03 02:34:10;;;;;;;1.0;1.0;;;;;;;9.7;100.0;102400;;;;
2022/10/03 02:35:00;;;;;;;1.0;1.0;;;;;;;9.7;100.0;102400;;;;
2022/10/03 02:36:10;;;;;;;1.0;1.0;;;;;;;9.6;100.0;102390;;;;
2022/10/03 02:37:01;;;;;;;1.0;1.0;;;;;;;9.6;100.0;102390;;;;
2022/10/03 02:38:04;;;;;;;1.0;1.0;;;;;;;9.6;100.0;102390;;;;
2022/10/03 02:39:10;;;;;;;1.0;1.0;;;;;;;9.5;100.0;102390;;;;
2022/10/03 02:40:01;;;;;;;1.0;1.0;;;;;;;9.5;100.0;102390;;;;
2022/10/03 02:41:10;;;;;;;1.0;1.0;;;;;;;9.5;100.0;102390;;;;
2022/10/03 02:42:03;;;;;;;1.0;1.0;;;;;;;9.5;100.0;102390;;;;
2022/10/03 02:43:10;;;;;;;1.0;1.0;;;;;;;9.6;100.0;102390;;;;
2022/10/03 02:44:10;;;;;;;1.0;1.0;;;;;;;9.6;100.0;102390;;;;
2022/10/03 02:45:10;;;;;;;1.0;1.0;;;;;;;9.6;100.0;102390;;;;
2022/10/03 02:46:01;;;;;;;1.0;1.0;;;;;;;9.6;100.0;102390;;;;
2022/10/03 02:47:10;;;;;;;1.0;1.0;;;;;;;9.6;100.0;102390;;;;
2022/10/03 02:48:11;;;;;;;1.0;1.0;;;;;;;9.6;100.0;102390;;;;
2022/10/03 02:49:00;;;;;;;1.0;1.0;;;;;;;9.6;100.0;102390;;;;
2022/10/03 02:50:10;;;;;;;1.0;1.0;;;;;;;9.5;100.0;102390;;;;
2022/10/03 02:51:10;;;;;;;1.0;1.0;;;;;;;9.5;100.0;102390;;;;
2022/10/03 02:52:10;;;;;;;1.0;1.0;;;;;;;9.5;100.0;102390;;;;
2022/10/03 02:53:00;;;;;;;1.0;1.0;;;;;;;9.5;100.0;102390;;;;
2022/10/03 02:54:10;;;;;;;1.0;1.0;;;;;;;9.5;100.0;102390;;;;
2022/10/03 02:55:10;;;;;;;1.0;1.0;;;;;;;9.5;100.0;102390;;;;
2022/10/03 02:56:01;;;;;;;1.0;1.0;;;;;;;9.5;100.0;102390;;;;
2022/10/03 02:57:10;;;;;;;1.0;1.0;;;;;;;9.5;100.0;102390;;;;
2022/10/03 02:58:03;;;;;;;1.0;1.0;;;;;;;9.5;100.0;102390;;;;
2022/10/03 02:59:10;;;;;;;1.0;1.0;;;;;;;9.5;100.0;102390;;;;
2022/10/03 03:00:02;;;;;;;1.0;1.0;;;;;;;9.5;100.0;102390;;;;
2022/10/03 03:01:10;;;;;;;1.0;1.0;;;;;;;9.4;100.0;102390;;;;
2022/10/03 03:02:01;;;;;;;1.0;1.0;;;;;;;9.4;100.0;102390;;;;
2022/10/03 03:03:00;;;;;;;1.1;1.1;;;;;;;9.4;100.0;102390;;;;
2022/10/03 03:04:10;;;;;;;1.1;1.1;;;;;;;9.4;100.0;102390;;;;
2022/10/03 03:05:01;;;;;;;1.1;1.1;;;;;;;9.4;100.0;102390;;;;
2022/10/03 03:06:10;;;;;;;1.1;1.1;;;;;;;9.4;100.0;102390;;;;
2022/10/03 03:07:10;;;;;;;1.1;1.1;;;;;;;9.4;100.0;102380;;;;
2022/10/03 03:08:10;;;;;;;1.1;1.1;;;;;;;9.4;100.0;102380;;;;
2022/10/03 03:09:10;;;;;;;1.1;1.1;;;;;;;9.4;100.0;102380;;;;
2022/10/03 03:10:00;;;;;;;1.1;1.1;;;;;;;9.4;100.0;102380;;;;
2022/10/03 03:11:10;;;;;;;1.1;1.1;;;;;;;9.3;100.0;102380;;;;
2022/10/03 03:12:10;;;;;;;1.1;1.1;;;;;;;9.3;100.0;102380;;;;
2022/10/03 03:13:10;;;;;;;1.1;1.1;;;;;;;9.3;100.0;102390;;;;
2022/10/03 03:14:04;;;;;;;1.1;1.1;;;;;;;9.3;100.0;102390;;;;
2022/10/03 03:15:10;;;;;;;1.1;1.1;;;;;;;9.3;100.0;102390;;;;
2022/10/03 03:16:10;;;;;;;1.1;1.1;;;;;;;9.3;100.0;102390;;;;
2022/10/03 03:17:10;;;;;;;1.1;1.1;;;;;;;9.3;100.0;102390;;;;
2022/10/03 03:18:06;;;;;;;1.1;1.1;;;;;;;9.3;100.0;102390;;;;
2022/10/03 03:19:09;;;;;;;1.1;1.1;;;;;;;9.3;100.0;102390;;;;
2022/10/03 03:20:01;;;;;;;1.1;1.1;;;;;;;9.3;100.0;102390;;;;
2022/10/03 03:21:10;;;;;;;1.1;1.1;;;;;;;9.2;100.0;102390;;;;
2022/10/03 03:22:09;;;;;;;1.1;1.1;;;;;;;9.2;100.0;102390;;;;
2022/10/03 03:23:00;;;;;;;1.1;1.1;;;;;;;9.2;100.0;102390;;;;
2022/10/03 03:24:07;;;;;;;1.1;1.1;;;;;;;9.2;100.0;102390;;;;
2022/10/03 03:25:07;;;;;;;1.1;1.1;;;;;;;9.2;100.0;102390;;;;
2022/10/03 03:26:01;;;;;;;1.1;1.1;;;;;;;9.2;100.0;102390;;;;
2022/10/03 03:27:10;;;;;;;1.1;1.1;;;;;;;9.2;100.0;102390;;;;
2022/10/03 03:28:10;;;;;;;1.1;1.1;;;;;;;9.2;100.0;102390;;;;
2022/10/03 03:29:10;;;;;;;1.1;1.1;;;;;;;9.2;100.0;102400;;;;
2022/10/03 03:30:04;;;;;;;1.1;1.1;;;;;;;9.2;100.0;102400;;;;
2022/10/03 03:31:07;;;;;;;1.1;1.1;;;;;;;9.2;100.0;102410;;;;
2022/10/03 03:32:04;;;;;;;1.1;1.1;;;;;;;9.2;100.0;102410;;;;
2022/10/03 03:33:00;;;;;;;1.1;1.1;;;;;;;9.2;100.0;102410;;;;
2022/10/03 03:34:00;;;;;;;1.1;1.1;;;;;;;9.1;100.0;102410;;;;
2022/10/03 03:35:00;;;;;;;1.1;1.1;;;;;;;9.1;100.0;102410;;;;
2022/10/03 03:36:03;;;;;;;1.1;1.1;;;;;;;9.2;100.0;102410;;;;
2022/10/03 03:37:05;;;;;;;1.1;1.1;;;;;;;9.1;100.0;102410;;;;
2022/10/03 03:38:07;;;;;;;1.1;1.1;;;;;;;9.1;100.0;102410;;;;
2022/10/03 03:39:05;;;;;;;1.1;1.1;;;;;;;9.1;100.0;102410;;;;
2022/10/03 03:40:00;;;;;;;1.1;1.1;;;;;;;9.1;100.0;102410;;;;
2022/10/03 03:41:00;;;;;;;1.1;1.1;;;;;;;9.1;100.0;102410;;;;
2022/10/03 03:42:11;;;;;;;1.1;1.1;;;;;;;9.1;100.0;102410;;;;
2022/10/03 03:43:10;;;;;;;1.3;1.3;;;;;;;9.1;100.0;102410;;;;
2022/10/03 03:44:10;;;;;;;1.3;1.3;;;;;;;9.1;100.0;102410;;;;
2022/10/03 03:45:08;;;;;;;1.3;1.3;;;;;;;9.1;100.0;102400;;;;
2022/10/03 03:46:05;;;;;;;1.3;1.3;;;;;;;9.1;100.0;102400;;;;
2022/10/03 03:47:10;;;;;;;1.3;1.3;;;;;;;9.1;100.0;102400;;;;
2022/10/03 03:48:11;;;;;;;1.3;1.3;;;;;;;9.1;100.0;102400;;;;
2022/10/03 03:49:01;;;;;;;1.3;1.3;;;;;;;9.1;100.0;102400;;;;
2022/10/03 03:50:11;;;;;;;1.3;1.3;;;;;;;9.0;100.0;102400;;;;
2022/10/03 03:51:10;;;;;;;1.3;1.3;;;;;;;9.0;100.0;102410;;;;
2022/10/03 03:52:10;;;;;;;1.3;1.3;;;;;;;9.0;100.0;102410;;;;
2022/10/03 03:53:10;;;;;;;1.3;1.3;;;;;;;9.0;100.0;102400;;;;
2022/10/03 03:54:09;;;;;;;1.3;1.3;;;;;;;9.0;100.0;102400;;;;
2022/10/03 03:55:05;;;;;;;1.3;1.3;;;;;;;8.9;100.0;102400;;;;
2022/10/03 03:56:01;;;;;;;1.3;1.3;;;;;;;8.9;100.0;102400;;;;
2022/10/03 03:57:01;;;;;;;1.3;1.3;;;;;;;8.9;100.0;102400;;;;
2022/10/03 03:58:08;;;;;;;1.3;1.3;;;;;;;9.0;100.0;102410;;;;
2022/10/03 03:59:01;;;;;;;1.3;1.3;;;;;;;9.0;100.0;102410;;;;
2022/10/03 04:00:00;;;;;;;1.3;1.3;;;;;;;9.0;100.0;102400;;;;
2022/10/03 04:01:00;;;;;;;1.3;1.3;;;;;;;9.0;100.0;102400;;;;
2022/10/03 04:02:10;;;;;;;1.0;1.0;;;;;;;8.9;100.0;102410;;;;
2022/10/03 04:03:10;;;;;;;1.0;1.0;;;;;;;8.9;100.0;102410;;;;
2022/10/03 04:04:00;;;;;;;1.0;1.0;;;;;;;8.9;100.0;102410;;;;
2022/10/03 04:05:10;;;;;;;1.0;1.0;;;;;;;8.9;100.0;102410;;;;
2022/10/03 04:06:11;;;;;;;1.0;1.0;;;;;;;8.9;100.0;102410;;;;
2022/10/03 04:07:12;;;;;;;1.0;1.0;;;;;;;8.9;100.0;102410;;;;
2022/10/03 04:08:05;;;;;;;1.0;1.0;;;;;;;8.9;100.0;102410;;;;
2022/10/03 04:09:00;;;;;;;1.0;1.0;;;;;;;8.9;100.0;102410;;;;
2022/10/03 04:10:10;;;;;;;1.0;1.0;;;;;;;8.9;100.0;102410;;;;
2022/10/03 04:11:00;;;;;;;1.0;1.0;;;;;;;8.9;100.0;102410;;;;
2022/10/03 04:12:10;;;;;;;1.0;1.0;;;;;;;8.8;100.0;102400;;;;
2022/10/03 04:13:10;;;;;;;1.0;1.0;;;;;;;8.8;100.0;102400;;;;
2022/10/03 04:14:10;;;;;;;1.0;1.0;;;;;;;8.8;100.0;102400;;;;
2022/10/03 04:15:03;;;;;;;1.0;1.0;;;;;;;8.8;100.0;102400;;;;
2022/10/03 04:16:10;;;;;;;1.0;1.0;;;;;;;8.8;100.0;102400;;;;
2022/10/03 04:19:06;;;;;;;1.0;1.0;;;;;;;8.8;100.0;102410;;;;
2022/10/03 04:20:10;;;;;;;1.0;1.0;;;;;;;8.8;100.0;102410;;;;
2022/10/03 04:21:10;;;;;;;1.0;1.0;;;;;;;8.8;100.0;102410;;;;
2022/10/03 04:22:10;;;;;;;1.2;1.2;;;;;;;8.8;100.0;102410;;;;
2022/10/03 04:23:00;;;;;;;1.2;1.2;;;;;;;8.8;100.0;102410;;;;
2022/10/03 04:24:00;;;;;;;1.2;1.2;;;;;;;8.8;100.0;102410;;;;
2022/10/03 04:25:14;;;;;;;1.2;1.2;;;;;;;8.7;100.0;102410;;;;
2022/10/03 04:26:00;;;;;;;1.2;1.2;;;;;;;8.7;100.0;102410;;;;
2022/10/03 04:27:00;;;;;;;1.2;1.2;;;;;;;8.7;100.0;102410;;;;
2022/10/03 04:28:10;;;;;;;1.2;1.2;;;;;;;8.7;100.0;102420;;;;
2022/10/03 04:29:01;;;;;;;1.2;1.2;;;;;;;8.7;100.0;102420;;;;
2022/10/03 04:30:10;;;;;;;1.2;1.2;;;;;;;8.7;100.0;102410;;;;
2022/10/03 04:31:00;;;;;;;1.2;1.2;;;;;;;8.7;100.0;102410;;;;
2022/10/03 04:32:07;;;;;;;1.2;1.2;;;;;;;8.7;100.0;102420;;;;
2022/10/03 04:33:08;;;;;;;1.2;1.2;;;;;;;8.7;100.0;102420;;;;
2022/10/03 04:34:08;;;;;;;1.2;1.2;;;;;;;8.7;100.0;102420;;;;
2022/10/03 04:35:10;;;;;;;1.2;1.2;;;;;;;8.7;100.0;102420;;;;
2022/10/03 04:36:10;;;;;;;1.2;1.2;;;;;;;8.7;100.0;102420;;;;
2022/10/03 04:37:10;;;;;;;1.2;1.2;;;;;;;8.7;100.0;102420;;;;
2022/10/03 04:38:11;;;;;;;1.2;1.2;;;;;;;8.7;100.0;102420;;;;
2022/10/03 04:39:10;;;;;;;1.2;1.2;;;;;;;8.6;100.0;102420;;;;
2022/10/03 04:40:10;;;;;;;1.2;1.2;;;;;;;8.6;100.0;102420;;;;
2022/10/03 04:41:11;;;;;;;1.2;1.2;;;;;;;8.6;100.0;102420;;;;
2022/10/03 04:42:06;;;;;;;1.1;1.1;;;;;;;8.6;100.0;102420;;;;
2022/10/03 04:43:10;;;;;;;1.1;1.1;;;;;;;8.6;100.0;102420;;;;
2022/10/03 04:44:10;;;;;;;1.1;1.1;;;;;;;8.6;100.0;102420;;;;
2022/10/03 04:45:10;;;;;;;1.1;1.1;;;;;;;8.6;100.0;102430;;;;
2022/10/03 04:46:01;;;;;;;1.1;1.1;;;;;;;8.6;100.0;102430;;;;
2022/10/03 04:47:01;;;;;;;1.1;1.1;;;;;;;8.6;100.0;102430;;;;
2022/10/03 04:48:10;;;;;;;1.1;1.1;;;;;;;8.6;100.0;102430;;;;
2022/10/03 04:49:05;;;;;;;1.1;1.1;;;;;;;8.6;100.0;102430;;;;
2022/10/03 04:50:09;;;;;;;1.1;1.1;;;;;;;8.6;100.0;102430;;;;
2022/10/03 04:51:10;;;;;;;1.1;1.1;;;;;;;8.4;100.0;102430;;;;
2022/10/03 04:52:10;;;;;;;1.1;1.1;;;;;;;8.4;100.0;102430;;;;
2022/10/03 04:53:03;;;;;;;1.1;1.1;;;;;;;8.4;100.0;102430;;;;
2022/10/03 04:54:08;;;;;;;1.1;1.1;;;;;;;8.4;100.0;102430;;;;
2022/10/03 04:55:00;;;;;;;1.1;1.1;;;;;;;8.4;100.0;102430;;;;
2022/10/03 04:56:11;;;;;;;1.1;1.1;;;;;;;8.4;100.0;102430;;;;
2022/10/03 04:57:04;;;;;;;1.1;1.1;;;;;;;8.3;100.0;102430;;;;
2022/10/03 04:58:05;;;;;;;1.1;1.1;;;;;;;8.3;100.0;102430;;;;
2022/10/03 04:59:10;;;;;;;1.1;1.1;;;;;;;8.5;100.0;102430;;;;
2022/10/03 05:00:10;;;;;;;1.1;1.1;;;;;;;8.5;100.0;102430;;;;
2022/10/03 05:01:05;;;;;;;1.1;1.1;;;;;;;8.6;100.0;102430;;;;
2022/10/03 05:02:02;;;;;;;1.1;1.1;;;;;;;8.6;100.0;102430;;;;
2022/10/03 05:03:03;;;;;;;1.1;1.1;;;;;;;8.5;100.0;102430;;;;
2022/10/03 05:04:10;;;;;;;1.1;1.1;;;;;;;8.5;100.0;102430;;;;
2022/10/03 05:05:10;;;;;;;1.1;1.1;;;;;;;8.5;100.0;102430;;;;
2022/10/03 05:06:06;;;;;;;1.1;1.1;;;;;;;8.5;100.0;102430;;;;
2022/10/03 05:07:00;;;;;;;1.1;1.1;;;;;;;8.5;100.0;102430;;;;
2022/10/03 05:08:04;;;;;;;1.1;1.1;;;;;;;8.5;100.0;102430;;;;
2022/10/03 05:09:05;;;;;;;1.1;1.1;;;;;;;8.6;100.0;102440;;;;
2022/10/03 05:10:07;;;;;;;1.1;1.1;;;;;;;8.6;100.0;102440;;;;
2022/10/03 05:11:11;;;;;;;1.1;1.1;;;;;;;8.6;100.0;102440;;;;
2022/10/03 05:12:05;;;;;;;1.1;1.1;;;;;;;8.6;100.0;102440;;;;
2022/10/03 05:13:10;;;;;;;1.1;1.1;;;;;;;8.5;100.0;102430;;;;
2022/10/03 05:14:08;;;;;;;1.1;1.1;;;;;;;8.5;100.0;102430;;;;
2022/10/03 05:15:06;;;;;;;1.1;1.1;;;;;;;8.5;100.0;102430;;;;
2022/10/03 05:16:10;;;;;;;1.1;1.1;;;;;;;8.5;100.0;102430;;;;
2022/10/03 05:17:06;;;;;;;1.1;1.1;;;;;;;8.5;100.0;102440;;;;
2022/10/03 05:18:10;;;;;;;1.1;1.1;;;;;;;8.5;100.0;102440;;;;
2022/10/03 05:19:01;;;;;;;1.1;1.1;;;;;;;8.5;100.0;102440;;;;
2022/10/03 05:20:10;;;;;;;1.1;1.1;;;;;;;8.4;100.0;102440;;;;
2022/10/03 05:21:10;;;;;;;1.1;1.1;;;;;;;8.4;100.0;102440;;;;
2022/10/03 05:22:04;;;;;;;1.3;1.3;;;;;;;8.4;100.0;102440;;;;
2022/10/03 05:23:10;;;;;;;1.3;1.3;;;;;;;8.5;100.0;102440;;;;
2022/10/03 05:24:10;;;;;;;1.3;1.3;;;;;;;8.5;100.0;102440;;;;
2022/10/03 05:25:10;;;;;;;1.3;1.3;;;;;;;8.5;100.0;102440;;;;
2022/10/03 05:26:16;;;;;;;1.3;1.3;;;;;;;8.5;100.0;102440;;;;
2022/10/03 05:27:02;;;;;;;1.3;1.3;;;;;;;8.5;100.0;102440;;;;
2022/10/03 05:28:09;;;;;;;1.3;1.3;;;;;;;8.5;100.0;102440;;;;
2022/10/03 05:29:04;;;;;;;1.3;1.3;;;;;;;8.5;100.0;102440;;;;
2022/10/03 05:30:10;;;;;;;1.3;1.3;;;;;;;8.5;100.0;102440;;;;
2022/10/03 05:31:05;;;;;;;1.3;1.3;;;;;;;8.4;100.0;102440;;;;
2022/10/03 05:32:10;;;;;;;1.3;1.3;;;;;;;8.4;100.0;102440;;;;
2022/10/03 05:33:13;;;;;;;1.3;1.3;;;;;;;8.4;100.0;102450;;;;
2022/10/03 05:34:10;;;;;;;1.3;1.3;;;;;;;8.4;100.0;102450;;;;
2022/10/03 05:35:10;;;;;;;1.3;1.3;;;;;;;8.4;100.0;102450;;;;
2022/10/03 05:36:07;;;;;;;1.3;1.3;;;;;;;8.4;100.0;102450;;;;
2022/10/03 05:37:01;;;;;;;1.3;1.3;;;;;;;8.4;100.0;102450;;;;
2022/10/03 05:38:03;;;;;;;1.3;1.3;;;;;;;8.4;100.0;102450;;;;
2022/10/03 05:39:10;;;;;;;1.3;1.3;;;;;;;8.4;100.0;102450;;;;
2022/10/03 05:40:10;;;;;;;1.3;1.3;;;;;;;8.4;100.0;102450;;;;
2022/10/03 05:41:10;;;;;;;1.3;1.3;;;;;;;8.3;100.0;102450;;;;
2022/10/03 05:42:10;;;;;;;1.2;1.2;;;;;;;8.3;100.0;102450;;;;
2022/10/03 05:43:10;;;;;;;1.2;1.2;;;;;;;8.3;100.0;102460;;;;
2022/10/03 05:44:00;;;;;;;1.2;1.2;;;;;;;8.3;100.0;102460;;;;
2022/10/03 05:45:10;;;;;;;1.2;1.2;;;;;;;8.3;100.0;102460;;;;
2022/10/03 05:46:03;;;;;;;1.2;1.2;;;;;;;8.3;100.0;102460;;;;
2022/10/03 05:47:43;;;;;;;1.2;1.2;;;;;;;8.3;100.0;102460;;;;
2022/10/03 05:48:10;;;;;;;1.2;1.2;;;;;;;8.3;100.0;102460;;;;
2022/10/03 05:49:10;;;;;;;1.2;1.2;;;;;;;8.4;100.0;102460;;;;
2022/10/03 05:50:15;;;;;;;1.2;1.2;;;;;;;8.4;100.0;102460;;;;
2022/10/03 05:51:00;;;;;;;1.2;1.2;;;;;;;8.4;100.0;102460;;;;
2022/10/03 05:52:01;;;;;;;1.2;1.2;;;;;;;8.3;100.0;102470;;;;
2022/10/03 05:53:07;;;;;;;1.2;1.2;;;;;;;8.3;100.0;102470;;;;
2022/10/03 05:54:10;;;;;;;1.2;1.2;;;;;;;8.3;100.0;102470;;;;
2022/10/03 05:55:10;;;;;;;1.2;1.2;;;;;;;8.3;100.0;102470;;;;
2022/10/03 05:56:00;;;;;;;1.2;1.2;;;;;;;8.3;100.0;102470;;;;
2022/10/03 05:57:00;;;;;;;1.2;1.2;;;;;;;8.3;100.0;102470;;;;
2022/10/03 05:58:07;;;;;;;1.2;1.2;;;;;;;8.3;100.0;102470;;;;
2022/10/03 05:59:11;;;;;;;1.2;1.2;;;;;;;8.2;100.0;102470;;;;
2022/10/03 06:00:06;;;;;;;1.2;1.2;;;;;;;8.2;100.0;102470;;;;
2022/10/03 06:01:10;;;;;;;1.2;1.2;;;;;;;8.2;100.0;102470;;;;
2022/10/03 06:02:10;;;;;;;1.2;1.2;;;;;;;8.2;100.0;102470;;;;
2022/10/03 06:03:10;;;;;;;1.2;1.2;;;;;;;8.2;100.0;102470;;;;
2022/10/03 06:04:09;;;;;;;1.2;1.2;;;;;;;8.2;100.0;102470;;;;
2022/10/03 06:05:10;;;;;;;1.2;1.2;;;;;;;8.2;100.0;102470;;;;
2022/10/03 06:06:10;;;;;;;1.2;1.2;;;;;;;8.2;100.0;102470;;;;
2022/10/03 06:07:01;;;;;;;1.2;1.2;;;;;;;8.2;100.0;102470;;;;
2022/10/03 06:08:10;;;;;;;1.2;1.2;;;;;;;8.3;100.0;102470;;;;
2022/10/03 06:09:10;;;;;;;1.2;1.2;;;;;;;8.2;100.0;102480;;;;
2022/10/03 06:10:10;;;;;;;1.2;1.2;;;;;;;8.2;100.0;102480;;;;
2022/10/03 06:11:00;;;;;;;1.2;1.2;;;;;;;8.2;100.0;102480;;;;
2022/10/03 06:12:04;;;;;;;1.2;1.2;;;;;;;8.2;100.0;102480;;;;
2022/10/03 06:13:10;;;;;;;1.2;1.2;;;;;;;8.3;100.0;102480;;;;
2022/10/03 06:14:00;;;;;;;1.2;1.2;;;;;;;8.3;100.0;102480;;;;
2022/10/03 06:15:03;;;;;;;1.2;1.2;;;;;;;8.2;100.0;102480;;;;
2022/10/03 06:16:01;;;;;;;1.2;1.2;;;;;;;8.2;100.0;102480;;;;
2022/10/03 06:17:10;;;;;;;1.2;1.2;;;;;;;8.2;100.0;102480;;;;
2022/10/03 06:18:10;;;;;;;1.2;1.2;;;;;;;8.2;100.0;102480;;;;
2022/10/03 06:19:02;;;;;;;1.2;1.2;;;;;;;8.2;100.0;102480;;;;
2022/10/03 06:20:10;;;;;;;1.2;1.2;;;;;;;8.3;100.0;102480;;;;
2022/10/03 06:21:10;;;;;;;1.2;1.2;;;;;;;8.3;100.0;102480;;;;
2022/10/03 06:22:10;;;;;;;1.3;1.3;;;;;;;8.3;100.0;102480;;;;
2022/10/03 06:23:10;;;;;;;1.3;1.3;;;;;;;8.3;100.0;102480;;;;
2022/10/03 06:24:10;;;;;;;1.3;1.3;;;;;;;8.3;100.0;102480;;;;
2022/10/03 06:25:10;;;;;;;1.3;1.3;;;;;;;8.3;100.0;102480;;;;
2022/10/03 06:26:07;;;;;;;1.3;1.3;;;;;;;8.3;100.0;102480;;;;
2022/10/03 06:27:00;;;;;;;1.3;1.3;;;;;;;8.3;100.0;102480;;;;
2022/10/03 06:28:10;;;;;;;1.3;1.3;;;;;;;8.2;100.0;102480;;;;
2022/10/03 06:29:10;;;;;;;1.3;1.3;;;;;;;8.3;100.0;102480;;;;
2022/10/03 06:30:02;;;;;;;1.3;1.3;;;;;;;8.3;100.0;102480;;;;
2022/10/03 06:31:10;;;;;;;1.3;1.3;;;;;;;8.4;100.0;102480;;;;
2022/10/03 06:32:10;;;;;;;1.3;1.3;;;;;;;8.4;100.0;102480;;;;